Alto Springs, Texas
Current Conditions -  °F | °C
As of 4:35 PM on Thursday 18 Dec 2014 (Local Time) from KLXY Reporting Station
Overcast Overcast  
Wind Chill: 48°   Ceiling: 700
Heat Index: 49°   Visibility: 7mi
Dew Point: 49°   Wind: 5mph
Humidity: 98%   Direction: 10°N
Pressure: 30.09"   Gusts: NA
Location:  31.3327°N, 96.6013°W
Report Text: KLXY 182235Z AUTO 01004KT 7SM SCT004 OVC007 10/09 A3009 RMK AO2 T00970094
Loading
Personal Weather Stations






























Interactive Weather Map New forecast layout! Learn more

10-Day Weather Forecast

Advertisements
Track Severe Weather on mobile